Obelix — 7JAX — position and weather

sailwx.info

Track history (hours):
 
Tides and Currents Weather Stations Pressure Air Temp Water Temp Dewpoint Dewpoint Depression Visibility Wind Speed Wind Dir Waves Ship Positions

Obelix

Last reported at 2016-Jul-26 15:33 UTC. Time now 2016-Jul-27 09:44 UTC.
Position N 35°12' E 139°46'.

Length 74 m; draft 4 m.

Type: Tanker. MMSI: 432528000.

Date/timePositionNaut miles runAvg speedWind from/ knotsBaromVisibWave heightAir tempDewpointWater temp
2016-Jul-26 15:33N 35°12' E 139°46'1211.7
2016-Jul-26 14:33N 35°24' E 139°43'1211.6
2016-Jul-26 13:34N 35°30' E 139°55'6 4.8
2016-Jul-26 12:19N 35°30' E 140°02'0 0.0
2016-Jul-26 11:28N 35°30' E 140°02'0 0.0
2016-Jul-26 10:31N 35°30' E 140°02'0 0.0
2016-Jul-26 09:28N 35°30' E 140°02'0 0.0
2016-Jul-26 08:25N 35°30' E 140°02'1 0.8
2016-Jul-26 07:33N 35°30' E 140°01'1211.5
2016-Jul-26 06:33N 35°26' E 139°48'1111.3
2016-Jul-26 05:33N 35°14' E 139°47'1312.7
2016-Jul-26 04:34N 35°03' E 139°41'1313.0
2016-Jul-26 03:33N 34°55' E 139°28'  
2016-Jul-22 09:18N 35°04' E 139°37'912.3
2016-Jul-22 08:33N 35°11' E 139°45'1111.2
2016-Jul-22 07:33N 35°22' E 139°42'18 5.6
2016-Jul-22 04:21N 35°30' E 140°02'0 0.0
2016-Jul-22 03:33N 35°30' E 140°02'0 0.0
2016-Jul-22 02:15N 35°30' E 140°02'0 0.0
2016-Jul-22 01:33N 35°30' E 140°02'0 0.0
2016-Jul-22 00:33N 35°30' E 140°02'1 1.4
2016-Jul-21 23:33N 35°30' E 140°01'2 2.2
2016-Jul-21 22:33N 35°30' E 139°58'1010.5
2016-Jul-21 21:33N 35°25' E 139°47'1111.1
2016-Jul-21 20:33N 35°14' E 139°47'1212.1
2016-Jul-21 19:33N 35°03' E 139°41'5911.9
2016-Jul-21 14:33N 34°34' E 138°38'  
2016-Jul-17 08:24N 35°10' E 139°44'911.1
2016-Jul-17 07:33N 35°19' E 139°43'1010.3
2016-Jul-17 06:34N 35°28' E 139°49'11 5.1
2016-Jul-17 04:26N 35°30' E 140°02'0 0.0
2016-Jul-17 03:26N 35°30' E 140°02'0 0.0
2016-Jul-17 02:29N 35°30' E 140°02'0 0.0
2016-Jul-17 01:32N 35°30' E 140°02'0 0.0
2016-Jul-17 00:32N 35°30' E 140°02'2 2.3
2016-Jul-16 23:33N 35°31' E 139°60'8 8.3
2016-Jul-16 22:33N 35°27' E 139°50'1111.0
2016-Jul-16 21:33N 35°17' E 139°46'1211.9
2016-Jul-16 20:33N 35°05' E 139°45'1513.0
2016-Jul-16 19:26N 34°56' E 139°31'  
Track history (hours):
 
Tides and Currents Weather Stations Pressure Air Temp Water Temp Dewpoint Dewpoint Depression Visibility Wind Speed Wind Dir Waves Ship Positions

Obelix

Last reported at 2016-Jul-26 15:33 UTC. Time now 2016-Jul-27 09:44 UTC.
Position N 35°12' E 139°46'.

Length 74 m; draft 4 m.

Type: Tanker. MMSI: 432528000.

Date/timePositionNaut miles runAvg speedWind from/ knotsBaromVisibWave heightAir tempDewpointWater temp
2016-Jul-26 15:33N 35°12' E 139°46'1211.7
2016-Jul-26 14:33N 35°24' E 139°43'1211.6
2016-Jul-26 13:34N 35°30' E 139°55'6 4.8
2016-Jul-26 12:19N 35°30' E 140°02'0 0.0
2016-Jul-26 11:28N 35°30' E 140°02'0 0.0
2016-Jul-26 10:31N 35°30' E 140°02'0 0.0
2016-Jul-26 09:28N 35°30' E 140°02'0 0.0
2016-Jul-26 08:25N 35°30' E 140°02'1 0.8
2016-Jul-26 07:33N 35°30' E 140°01'1211.5
2016-Jul-26 06:33N 35°26' E 139°48'1111.3
2016-Jul-26 05:33N 35°14' E 139°47'1312.7
2016-Jul-26 04:34N 35°03' E 139°41'1313.0
2016-Jul-26 03:33N 34°55' E 139°28'  
2016-Jul-22 09:18N 35°04' E 139°37'912.3
2016-Jul-22 08:33N 35°11' E 139°45'1111.2
2016-Jul-22 07:33N 35°22' E 139°42'18 5.6
2016-Jul-22 04:21N 35°30' E 140°02'0 0.0
2016-Jul-22 03:33N 35°30' E 140°02'0 0.0
2016-Jul-22 02:15N 35°30' E 140°02'0 0.0
2016-Jul-22 01:33N 35°30' E 140°02'0 0.0
2016-Jul-22 00:33N 35°30' E 140°02'1 1.4
2016-Jul-21 23:33N 35°30' E 140°01'2 2.2
2016-Jul-21 22:33N 35°30' E 139°58'1010.5
2016-Jul-21 21:33N 35°25' E 139°47'1111.1
2016-Jul-21 20:33N 35°14' E 139°47'1212.1
2016-Jul-21 19:33N 35°03' E 139°41'5911.9
2016-Jul-21 14:33N 34°34' E 138°38'  
2016-Jul-17 08:24N 35°10' E 139°44'911.1
2016-Jul-17 07:33N 35°19' E 139°43'1010.3
2016-Jul-17 06:34N 35°28' E 139°49'11 5.1
2016-Jul-17 04:26N 35°30' E 140°02'0 0.0
2016-Jul-17 03:26N 35°30' E 140°02'0 0.0
2016-Jul-17 02:29N 35°30' E 140°02'0 0.0
2016-Jul-17 01:32N 35°30' E 140°02'0 0.0
2016-Jul-17 00:32N 35°30' E 140°02'2 2.3
2016-Jul-16 23:33N 35°31' E 139°60'8 8.3
2016-Jul-16 22:33N 35°27' E 139°50'1111.0
2016-Jul-16 21:33N 35°17' E 139°46'1211.9
2016-Jul-16 20:33N 35°05' E 139°45'1513.0
2016-Jul-16 19:26N 34°56' E 139°31'  

Dump ship's entire track history